Time;durP1;ratioP1;P1;durP2;ratioP2;P2;SDS_P1;SDS_P2;PMS_P1;PMS_P2;Temp;Humidity;BMP_temperature;BMP_pressure;BME280_temperature;BME280_humidity;BME280_pressure;Samples;Min_cycle;Max_cycle;Signal;HPM_P1;HPM_P2
2022/01/23 00:00:49;;;;;;;10.23;5.20;;;;;;;;;;4916901;29;20016;-74
2022/01/23 00:03:19;;;;;;;8.98;4.85;;;;;;;;;;4917059;29;20027;-74
2022/01/23 00:05:45;;;;;;;8.57;4.55;;;;;;;;;;4899646;29;20111;-73
2022/01/23 00:08:13;;;;;;;9.63;4.95;;;;;;;;;;4916997;29;20025;-74
2022/01/23 00:10:38;;;;;;;8.38;4.75;;;;;;;;;;4916754;29;20139;-73
2022/01/23 00:13:27;;;;;;;11.07;4.90;;;;;;;;;;4916624;29;20482;-73
2022/01/23 00:18:36;;;;;;;13.52;5.70;;;;;;;;;;4916574;29;20504;-74
2022/01/23 00:21:02;;;;;;;9.05;5.22;;;;;;;;;;4899343;29;20052;-74
2022/01/23 00:23:32;;;;;;;13.60;6.20;;;;;;;;;;4915436;29;20051;-74
2022/01/23 00:31:30;;;;;;;9.30;4.85;;;;;;;;;;4916479;29;20508;-74
2022/01/23 00:33:56;;;;;;;9.48;4.93;;;;;;;;;;4918134;29;20020;-75
2022/01/23 00:36:22;;;;;;;9.73;5.35;;;;;;;;;;4924250;29;20052;-73
2022/01/23 00:38:48;;;;;;;9.32;4.70;;;;;;;;;;4924922;29;20044;-74
2022/01/23 00:41:13;;;;;;;10.45;5.57;;;;;;;;;;4925800;29;20024;-73
2022/01/23 00:43:41;;;;;;;9.63;5.18;;;;;;;;;;4926807;29;20027;-74
2022/01/23 00:48:49;;;;;;;12.88;5.53;;;;;;;;;;4922329;29;20032;-73
2022/01/23 00:51:14;;;;;;;10.73;4.90;;;;;;;;;;4901299;29;20454;-73
2022/01/23 00:53:40;;;;;;;8.77;4.57;;;;;;;;;;4918881;29;20148;-74
2022/01/23 00:56:05;;;;;;;8.48;4.80;;;;;;;;;;4917850;29;20023;-74
2022/01/23 00:58:30;;;;;;;13.07;4.80;;;;;;;;;;4918046;29;20663;-75
2022/01/23 01:00:55;;;;;;;11.13;5.28;;;;;;;;;;4917897;29;20025;-74
2022/01/23 01:03:20;;;;;;;7.72;4.38;;;;;;;;;;4918258;29;20032;-73
2022/01/23 01:05:46;;;;;;;9.43;5.13;;;;;;;;;;4916960;29;20470;-74
2022/01/23 01:08:11;;;;;;;12.80;5.18;;;;;;;;;;4916118;29;20483;-73
2022/01/23 01:11:15;;;;;;;12.27;5.15;;;;;;;;;;4915934;29;20032;-73
2022/01/23 01:13:24;;;;;;;13.43;4.88;;;;;;;;;;4915889;29;20095;-73
2022/01/23 01:32:37;;;;;;;11.25;5.65;;;;;;;;;;4919182;29;20035;-72
2022/01/23 01:35:17;;;;;;;10.55;5.68;;;;;;;;;;4920414;29;20020;-73
2022/01/23 01:37:42;;;;;;;12.43;5.55;;;;;;;;;;4903918;29;20508;-74
2022/01/23 01:40:07;;;;;;;8.65;5.05;;;;;;;;;;4902366;29;20020;-73
2022/01/23 01:42:33;;;;;;;9.35;5.50;;;;;;;;;;4902133;29;20028;-73
2022/01/23 01:44:58;;;;;;;8.60;5.28;;;;;;;;;;4919542;29;20107;-74
2022/01/23 01:47:23;;;;;;;11.30;5.63;;;;;;;;;;4919006;29;20568;-73
2022/01/23 01:49:48;;;;;;;10.70;5.32;;;;;;;;;;4919340;29;20032;-72
2022/01/23 01:52:13;;;;;;;15.30;6.07;;;;;;;;;;4919029;29;20023;-73
2022/01/23 01:54:39;;;;;;;10.30;5.32;;;;;;;;;;4919247;29;20031;-73
2022/01/23 01:57:07;;;;;;;10.25;5.50;;;;;;;;;;4919308;29;20027;-74
2022/01/23 02:10:28;;;;;;;12.18;5.75;;;;;;;;;;4918761;29;20038;-74
2022/01/23 02:13:06;;;;;;;9.80;5.53;;;;;;;;;;4918501;29;20025;-74
2022/01/23 02:15:47;;;;;;;10.13;5.50;;;;;;;;;;4918912;29;20024;-73
2022/01/23 02:18:30;;;;;;;9.38;5.30;;;;;;;;;;4918723;29;20020;-74
2022/01/23 02:51:31;;;;;;;12.55;6.75;;;;;;;;;;4918275;29;20500;-74
2022/01/23 02:56:58;;;;;;;11.85;6.80;;;;;;;;;;4876031;29;20393;-74
2022/01/23 02:59:26;;;;;;;13.70;7.18;;;;;;;;;;4918227;29;20116;-74
2022/01/23 03:04:35;;;;;;;14.02;7.13;;;;;;;;;;4917945;29;20590;-73
2022/01/23 03:13:37;;;;;;;13.63;7.75;;;;;;;;;;4917546;29;20071;-73
2022/01/23 03:15:28;;;;;;;13.98;6.50;;;;;;;;;;4917310;29;20032;-74
2022/01/23 03:31:23;;;;;;;12.40;6.88;;;;;;;;;;4917558;29;20121;-73
2022/01/23 03:33:48;;;;;;;14.45;7.13;;;;;;;;;;4917246;29;20086;-73
2022/01/23 03:36:14;;;;;;;15.57;7.95;;;;;;;;;;4900908;29;20470;-74
2022/01/23 03:38:39;;;;;;;15.40;8.02;;;;;;;;;;4917545;29;20031;-73
2022/01/23 03:41:04;;;;;;;14.32;7.25;;;;;;;;;;4900331;29;20614;-74
2022/01/23 03:43:33;;;;;;;19.23;7.72;;;;;;;;;;4917127;29;20024;-74
2022/01/23 03:51:07;;;;;;;16.33;7.88;;;;;;;;;;4941792;29;20028;-72
2022/01/23 03:53:32;;;;;;;21.08;8.93;;;;;;;;;;4940232;29;20058;-73
2022/01/23 03:55:58;;;;;;;16.80;7.55;;;;;;;;;;4923978;29;20110;-72
2022/01/23 03:58:23;;;;;;;14.88;7.97;;;;;;;;;;4909823;29;20020;-72
2022/01/23 04:00:48;;;;;;;15.40;7.88;;;;;;;;;;4922042;29;20020;-73
2022/01/23 04:03:17;;;;;;;21.38;8.73;;;;;;;;;;4904575;29;20028;-73
2022/01/23 04:05:42;;;;;;;20.70;8.68;;;;;;;;;;4921075;29;20055;-72
2022/01/23 04:08:08;;;;;;;16.08;9.10;;;;;;;;;;4919054;29;20475;-72
2022/01/23 04:10:33;;;;;;;16.88;8.80;;;;;;;;;;4901924;29;20111;-72
2022/01/23 04:13:18;;;;;;;19.27;9.02;;;;;;;;;;4918379;29;20028;-72
2022/01/23 04:15:51;;;;;;;18.77;8.73;;;;;;;;;;4901790;29;20023;-72
2022/01/23 04:20:48;;;;;;;18.55;8.43;;;;;;;;;;4920066;29;20024;-72
2022/01/23 04:34:34;;;;;;;20.40;8.50;;;;;;;;;;4912621;29;20059;-71
2022/01/23 04:45:34;;;;;;;15.70;7.82;;;;;;;;;;4924054;29;20031;-71
2022/01/23 05:04:27;;;;;;;14.00;7.57;;;;;;;;;;4919119;29;20485;-72
2022/01/23 05:07:01;;;;;;;15.75;8.02;;;;;;;;;;4918001;29;20478;-72
2022/01/23 05:09:27;;;;;;;17.38;8.27;;;;;;;;;;4916607;29;20032;-72
2022/01/23 05:11:57;;;;;;;15.45;8.30;;;;;;;;;;4900436;29;20556;-71
2022/01/23 05:14:32;;;;;;;16.83;7.78;;;;;;;;;;4901413;29;20024;-71
2022/01/23 05:16:58;;;;;;;14.30;8.07;;;;;;;;;;4917430;29;20393;-71
2022/01/23 05:19:24;;;;;;;14.75;7.90;;;;;;;;;;4917872;29;20023;-72
2022/01/23 05:24:19;;;;;;;13.50;8.20;;;;;;;;;;4917237;29;20028;-72
2022/01/23 05:26:46;;;;;;;16.35;7.50;;;;;;;;;;4916858;29;20020;-72
2022/01/23 05:29:12;;;;;;;17.40;7.75;;;;;;;;;;4916982;29;20069;-72
2022/01/23 05:31:37;;;;;;;13.80;6.50;;;;;;;;;;4899652;29;20118;-73
2022/01/23 05:34:03;;;;;;;14.57;7.50;;;;;;;;;;4916910;29;20354;-71
2022/01/23 05:36:28;;;;;;;14.93;7.15;;;;;;;;;;4917639;29;20024;-72
2022/01/23 05:38:54;;;;;;;11.65;7.18;;;;;;;;;;4900331;29;20021;-71
2022/01/23 05:41:19;;;;;;;14.77;6.57;;;;;;;;;;4918807;29;20512;-71
2022/01/23 05:43:45;;;;;;;12.25;6.32;;;;;;;;;;4918309;29;20473;-71
2022/01/23 05:46:13;;;;;;;12.98;5.78;;;;;;;;;;4917562;29;20035;-71
2022/01/23 05:48:39;;;;;;;10.93;5.95;;;;;;;;;;4900144;29;20028;-72
2022/01/23 05:51:06;;;;;;;9.60;5.57;;;;;;;;;;4900126;29;20039;-71
2022/01/23 05:53:31;;;;;;;10.23;5.47;;;;;;;;;;4917495;29;20111;-72
2022/01/23 05:55:57;;;;;;;13.30;5.63;;;;;;;;;;4900008;29;20539;-71
2022/01/23 05:58:22;;;;;;;8.77;5.32;;;;;;;;;;4916936;29;20023;-72
2022/01/23 06:00:47;;;;;;;9.88;5.22;;;;;;;;;;4900553;29;20024;-72
2022/01/23 06:03:13;;;;;;;11.45;5.47;;;;;;;;;;4917757;29;20024;-72
2022/01/23 06:05:38;;;;;;;12.20;5.50;;;;;;;;;;4900499;29;20039;-70
2022/01/23 06:08:03;;;;;;;8.57;4.80;;;;;;;;;;4900667;29;20125;-72
2022/01/23 06:10:35;;;;;;;10.82;4.90;;;;;;;;;;4917018;29;20441;-72
2022/01/23 06:13:02;;;;;;;9.65;5.00;;;;;;;;;;4899844;29;20032;-73
2022/01/23 06:15:27;;;;;;;9.15;4.68;;;;;;;;;;4917797;29;20422;-72
2022/01/23 06:17:52;;;;;;;11.45;6.10;;;;;;;;;;4918897;29;20413;-73
2022/01/23 06:20:17;;;;;;;9.85;5.15;;;;;;;;;;4921323;29;20032;-70
2022/01/23 06:22:45;;;;;;;10.27;6.03;;;;;;;;;;4907106;29;20028;-71
2022/01/23 06:25:12;;;;;;;13.93;6.60;;;;;;;;;;4922867;29;20020;-72
2022/01/23 06:27:38;;;;;;;16.88;6.13;;;;;;;;;;4903525;29;20107;-72
2022/01/23 06:30:03;;;;;;;10.15;5.75;;;;;;;;;;4903956;29;20505;-73
2022/01/23 06:32:29;;;;;;;13.15;6.38;;;;;;;;;;4920886;29;20023;-72
2022/01/23 06:34:54;;;;;;;13.93;6.40;;;;;;;;;;4904152;29;20063;-71
2022/01/23 06:37:19;;;;;;;12.45;6.30;;;;;;;;;;4922103;29;20437;-72
2022/01/23 06:39:44;;;;;;;12.15;6.97;;;;;;;;;;4922338;29;20024;-70
2022/01/23 06:42:10;;;;;;;16.92;7.82;;;;;;;;;;4922326;29;20020;-71
2022/01/23 06:44:36;;;;;;;15.30;6.80;;;;;;;;;;4922450;29;20075;-72
2022/01/23 06:47:01;;;;;;;12.45;6.35;;;;;;;;;;4923323;29;20433;-72
2022/01/23 06:49:26;;;;;;;14.63;7.80;;;;;;;;;;4922112;29;20028;-71
2022/01/23 06:51:51;;;;;;;19.48;7.80;;;;;;;;;;4921816;29;20027;-72
2022/01/23 06:54:17;;;;;;;14.00;7.03;;;;;;;;;;4920229;29;20052;-71
2022/01/23 06:56:43;;;;;;;12.60;6.80;;;;;;;;;;4904785;29;20448;-71
2022/01/23 06:59:08;;;;;;;14.13;7.03;;;;;;;;;;4922392;29;20027;-71
2022/01/23 07:01:34;;;;;;;15.38;7.15;;;;;;;;;;4921113;29;20028;-71
2022/01/23 07:04:00;;;;;;;17.70;8.00;;;;;;;;;;4906268;29;20031;-71
2022/01/23 07:06:25;;;;;;;15.02;6.47;;;;;;;;;;4923133;29;20024;-71
2022/01/23 07:08:51;;;;;;;15.57;7.80;;;;;;;;;;4924224;29;20027;-72
2022/01/23 07:11:16;;;;;;;14.05;7.38;;;;;;;;;;4923473;29;20082;-71
2022/01/23 07:13:41;;;;;;;15.43;7.35;;;;;;;;;;4922689;29;20451;-73
2022/01/23 07:16:07;;;;;;;15.25;7.22;;;;;;;;;;4921220;29;20092;-72
2022/01/23 07:18:32;;;;;;;14.07;6.70;;;;;;;;;;4921561;29;20110;-73
2022/01/23 07:20:58;;;;;;;14.18;7.10;;;;;;;;;;4918844;29;20027;-72
2022/01/23 07:23:23;;;;;;;14.15;7.35;;;;;;;;;;4918385;29;20062;-71
2022/01/23 07:25:49;;;;;;;13.13;6.43;;;;;;;;;;4918272;29;20028;-71
2022/01/23 07:28:18;;;;;;;12.93;6.80;;;;;;;;;;4918443;29;20043;-72
2022/01/23 07:33:11;;;;;;;16.70;7.43;;;;;;;;;;4918041;29;20470;-72
2022/01/23 07:35:36;;;;;;;14.77;7.20;;;;;;;;;;4901242;29;20031;-72
2022/01/23 07:38:02;;;;;;;13.68;7.47;;;;;;;;;;4900807;29;20024;-72
2022/01/23 07:40:27;;;;;;;17.90;7.43;;;;;;;;;;4917983;29;20066;-73
2022/01/23 07:42:52;;;;;;;14.48;7.57;;;;;;;;;;4918089;29;20102;-72
2022/01/23 07:45:18;;;;;;;12.90;6.93;;;;;;;;;;4917975;29;20020;-72
2022/01/23 07:47:43;;;;;;;14.05;7.32;;;;;;;;;;4917965;29;20047;-72
2022/01/23 07:50:09;;;;;;;13.88;6.53;;;;;;;;;;4901385;29;20144;-72
2022/01/23 07:52:35;;;;;;;13.43;6.80;;;;;;;;;;4900943;29;20159;-73
2022/01/23 07:55:12;;;;;;;13.85;6.80;;;;;;;;;;4901391;29;20458;-72
2022/01/23 07:57:37;;;;;;;13.55;6.50;;;;;;;;;;4917619;29;20152;-72
2022/01/23 08:00:07;;;;;;;10.95;5.78;;;;;;;;;;4918164;29;20103;-72
2022/01/23 08:02:33;;;;;;;13.38;5.95;;;;;;;;;;4918126;29;20024;-72
2022/01/23 08:04:58;;;;;;;12.85;5.40;;;;;;;;;;4902046;29;20024;-72
2022/01/23 08:09:56;;;;;;;11.05;5.47;;;;;;;;;;4921335;29;20465;-73
2022/01/23 08:12:22;;;;;;;11.27;5.85;;;;;;;;;;4921545;29;20045;-72
2022/01/23 08:14:47;;;;;;;10.55;5.50;;;;;;;;;;4921537;29;20059;-73
2022/01/23 08:17:12;;;;;;;9.63;4.90;;;;;;;;;;4921836;29;20035;-72
2022/01/23 08:19:38;;;;;;;10.82;5.97;;;;;;;;;;4922942;29;20015;-72
2022/01/23 08:22:03;;;;;;;11.43;5.28;;;;;;;;;;4907158;29;20044;-73
2022/01/23 08:24:29;;;;;;;9.63;4.43;;;;;;;;;;4907335;29;20032;-71
2022/01/23 08:26:54;;;;;;;7.88;4.88;;;;;;;;;;4922774;29;20396;-72
2022/01/23 08:29:19;;;;;;;10.90;4.55;;;;;;;;;;4923448;29;20032;-72
2022/01/23 08:31:45;;;;;;;10.60;5.03;;;;;;;;;;4903048;29;20402;-72
2022/01/23 08:34:11;;;;;;;8.30;3.95;;;;;;;;;;4917939;29;20035;-72
2022/01/23 08:36:36;;;;;;;9.35;4.63;;;;;;;;;;4916755;29;20055;-72
2022/01/23 08:39:02;;;;;;;9.27;4.95;;;;;;;;;;4900206;29;20047;-72
2022/01/23 08:44:26;;;;;;;10.60;5.63;;;;;;;;;;4904636;29;20037;-72
2022/01/23 08:46:53;;;;;;;9.15;4.43;;;;;;;;;;4899852;29;20087;-73
2022/01/23 08:49:19;;;;;;;7.97;4.32;;;;;;;;;;4916788;29;20032;-73
2022/01/23 08:51:45;;;;;;;7.43;4.25;;;;;;;;;;4916769;29;20054;-72
2022/01/23 08:54:10;;;;;;;9.77;4.45;;;;;;;;;;4899637;29;20331;-73
2022/01/23 08:56:36;;;;;;;7.05;3.85;;;;;;;;;;4916615;29;20362;-72
2022/01/23 08:59:01;;;;;;;10.40;4.55;;;;;;;;;;4916596;29;20024;-73
2022/01/23 09:01:27;;;;;;;9.05;4.28;;;;;;;;;;4899651;29;20028;-72
2022/01/23 09:03:53;;;;;;;7.22;3.70;;;;;;;;;;4916146;29;20036;-74
2022/01/23 09:06:18;;;;;;;8.60;4.20;;;;;;;;;;4916515;29;20032;-73
2022/01/23 09:08:44;;;;;;;7.90;4.10;;;;;;;;;;4917268;29;20028;-72
2022/01/23 09:16:15;;;;;;;7.72;4.35;;;;;;;;;;4916593;29;20512;-72
2022/01/23 09:18:40;;;;;;;8.38;3.90;;;;;;;;;;4917038;29;20553;-72
2022/01/23 09:21:06;;;;;;;9.93;4.78;;;;;;;;;;4899745;29;20111;-72
2022/01/23 09:23:32;;;;;;;7.75;3.85;;;;;;;;;;4899442;29;20024;-72
2022/01/23 09:25:59;;;;;;;8.85;4.13;;;;;;;;;;4916494;29;20028;-73
2022/01/23 09:28:31;;;;;;;8.40;4.45;;;;;;;;;;4899422;29;20032;-72
2022/01/23 09:30:56;;;;;;;9.70;4.85;;;;;;;;;;4916466;29;20047;-71
2022/01/23 09:33:22;;;;;;;10.18;4.97;;;;;;;;;;4899165;29;20482;-72
2022/01/23 09:35:47;;;;;;;11.27;4.72;;;;;;;;;;4916418;29;20091;-72
2022/01/23 09:38:12;;;;;;;8.23;4.55;;;;;;;;;;4916201;29;20393;-71
2022/01/23 09:40:40;;;;;;;8.27;4.45;;;;;;;;;;4899275;29;20024;-72
2022/01/23 09:43:07;;;;;;;9.87;4.33;;;;;;;;;;4899587;29;20024;-72
2022/01/23 09:45:33;;;;;;;6.85;4.00;;;;;;;;;;4916751;29;20092;-72
2022/01/23 09:48:02;;;;;;;8.32;3.95;;;;;;;;;;4899166;29;20378;-71
2022/01/23 09:50:29;;;;;;;7.97;4.35;;;;;;;;;;4898975;29;20489;-70
2022/01/23 09:52:54;;;;;;;17.08;4.97;;;;;;;;;;4916507;29;20038;-72
2022/01/23 09:55:21;;;;;;;7.40;4.10;;;;;;;;;;4916285;29;20020;-71
2022/01/23 09:57:47;;;;;;;7.93;4.65;;;;;;;;;;4919307;29;20027;-71
2022/01/23 10:00:14;;;;;;;11.27;4.88;;;;;;;;;;4902878;29;20525;-71
2022/01/23 10:02:40;;;;;;;7.72;4.35;;;;;;;;;;4902264;29;20032;-73
2022/01/23 10:05:07;;;;;;;8.63;4.05;;;;;;;;;;4919547;29;20493;-72
2022/01/23 10:07:35;;;;;;;8.15;4.30;;;;;;;;;;4919141;29;20083;-73
2022/01/23 10:10:38;;;;;;;6.25;3.17;;;;;;;;;;4920116;29;20020;-74
2022/01/23 10:13:03;;;;;;;6.03;3.22;;;;;;;;;;4917507;29;20028;-72
2022/01/23 10:15:31;;;;;;;8.25;3.45;;;;;;;;;;4919254;29;20027;-72
2022/01/23 10:17:56;;;;;;;8.00;4.03;;;;;;;;;;4902152;29;20068;-72
2022/01/23 10:20:22;;;;;;;5.75;2.90;;;;;;;;;;4919236;29;20028;-71
2022/01/23 10:22:50;;;;;;;6.95;3.30;;;;;;;;;;4919234;29;20028;-71
2022/01/23 10:25:20;;;;;;;7.23;3.63;;;;;;;;;;4919140;29;20031;-72
2022/01/23 10:27:55;;;;;;;7.57;3.65;;;;;;;;;;4919223;29;20027;-72
2022/01/23 10:30:23;;;;;;;8.93;4.20;;;;;;;;;;4902050;29;20016;-74
2022/01/23 10:33:03;;;;;;;7.82;3.47;;;;;;;;;;4919268;29;20028;-73
2022/01/23 10:35:29;;;;;;;6.05;3.60;;;;;;;;;;4902504;29;20024;-73
2022/01/23 10:37:55;;;;;;;5.68;3.08;;;;;;;;;;4902573;29;20043;-72
2022/01/23 10:40:21;;;;;;;6.38;3.40;;;;;;;;;;4902974;29;20020;-72
2022/01/23 10:48:13;;;;;;;5.90;3.55;;;;;;;;;;4919681;29;20087;-71
2022/01/23 10:50:38;;;;;;;6.65;3.42;;;;;;;;;;4902519;29;20032;-71
2022/01/23 10:53:04;;;;;;;5.00;2.80;;;;;;;;;;4920059;29;20024;-72
2022/01/23 10:55:30;;;;;;;4.85;3.20;;;;;;;;;;4920860;29;20095;-73
2022/01/23 10:58:01;;;;;;;8.38;2.67;;;;;;;;;;4904288;29;20128;-72
2022/01/23 11:00:27;;;;;;;5.68;3.33;;;;;;;;;;4921772;29;20023;-72
2022/01/23 11:02:52;;;;;;;9.02;3.25;;;;;;;;;;4920376;29;20044;-72
2022/01/23 11:05:19;;;;;;;7.28;3.60;;;;;;;;;;4921146;29;20430;-72
2022/01/23 11:07:46;;;;;;;6.93;3.58;;;;;;;;;;4903943;29;20470;-71
2022/01/23 11:10:16;;;;;;;5.32;2.80;;;;;;;;;;4920633;29;20028;-72
2022/01/23 11:17:22;;;;;;;5.80;3.30;;;;;;;;;;4919985;29;20080;-72
2022/01/23 11:18:19;;;;;;;5.85;2.92;;;;;;;;;;4921315;29;20039;-72
2022/01/23 11:20:46;;;;;;;5.50;3.10;;;;;;;;;;4905098;29;20023;-74
2022/01/23 11:23:17;;;;;;;5.93;3.30;;;;;;;;;;4904080;29;20063;-72
2022/01/23 11:26:06;;;;;;;7.60;3.53;;;;;;;;;;4919818;29;20083;-73
2022/01/23 11:28:46;;;;;;;4.85;2.67;;;;;;;;;;4920338;29;20052;-72
2022/01/23 11:31:13;;;;;;;7.28;2.95;;;;;;;;;;4901055;29;20043;-73
2022/01/23 11:33:40;;;;;;;7.07;3.03;;;;;;;;;;4917662;29;20098;-72
2022/01/23 11:36:06;;;;;;;5.70;3.00;;;;;;;;;;4918358;29;20305;-73
2022/01/23 11:38:31;;;;;;;5.82;2.67;;;;;;;;;;4901388;29;20062;-71
2022/01/23 11:54:41;;;;;;;5.97;3.35;;;;;;;;;;4922565;29;20552;-74
2022/01/23 11:57:25;;;;;;;6.68;3.13;;;;;;;;;;4904161;29;20017;-72
2022/01/23 11:59:50;;;;;;;6.05;3.22;;;;;;;;;;4921377;29;20028;-73
2022/01/23 12:02:24;;;;;;;6.50;3.88;;;;;;;;;;4904692;29;20024;-72
2022/01/23 12:05:08;;;;;;;5.38;3.08;;;;;;;;;;4901749;29;20056;-71
2022/01/23 12:07:35;;;;;;;8.05;3.20;;;;;;;;;;4917667;29;20493;-72
2022/01/23 12:10:15;;;;;;;7.10;3.28;;;;;;;;;;4915971;29;20047;-73
2022/01/23 12:12:44;;;;;;;4.57;3.08;;;;;;;;;;4900063;29;20032;-73
2022/01/23 12:18:28;;;;;;;6.00;3.67;;;;;;;;;;4917466;29;20401;-72
2022/01/23 12:20:54;;;;;;;6.43;3.58;;;;;;;;;;4900551;29;20028;-72
2022/01/23 12:23:22;;;;;;;5.53;3.30;;;;;;;;;;4917263;29;20042;-72
2022/01/23 12:25:49;;;;;;;6.75;3.78;;;;;;;;;;4918388;29;20495;-72
2022/01/23 12:28:17;;;;;;;5.53;3.33;;;;;;;;;;4901338;29;20020;-72
2022/01/23 12:30:44;;;;;;;5.95;3.45;;;;;;;;;;4901857;29;20024;-73
2022/01/23 12:33:12;;;;;;;5.88;3.55;;;;;;;;;;4917758;29;20405;-72
2022/01/23 12:35:39;;;;;;;6.90;3.13;;;;;;;;;;4917603;29;20091;-72
2022/01/23 12:38:06;;;;;;;5.15;3.42;;;;;;;;;;4917243;29;20020;-72
2022/01/23 12:40:33;;;;;;;6.55;3.58;;;;;;;;;;4900193;29;20035;-72
2022/01/23 12:43:04;;;;;;;6.45;3.47;;;;;;;;;;4899490;29;20048;-72
2022/01/23 12:45:43;;;;;;;8.80;4.43;;;;;;;;;;4900086;29;20478;-73
2022/01/23 12:48:27;;;;;;;8.20;4.03;;;;;;;;;;4916371;29;20493;-73
2022/01/23 12:51:00;;;;;;;6.25;3.90;;;;;;;;;;4916358;29;20047;-72
2022/01/23 12:53:35;;;;;;;7.57;3.95;;;;;;;;;;4916495;29;20488;-71
2022/01/23 12:56:09;;;;;;;6.75;3.83;;;;;;;;;;4899694;29;20016;-73
2022/01/23 12:58:35;;;;;;;7.70;4.05;;;;;;;;;;4916502;29;20021;-71
2022/01/23 13:01:03;;;;;;;8.18;4.65;;;;;;;;;;4915028;29;20055;-73
2022/01/23 13:03:28;;;;;;;6.57;3.95;;;;;;;;;;4916240;29;20039;-72
2022/01/23 13:05:54;;;;;;;7.90;4.55;;;;;;;;;;4916788;29;20032;-72
2022/01/23 13:08:47;;;;;;;9.02;5.65;;;;;;;;;;4916428;29;20035;-73
2022/01/23 13:11:33;;;;;;;8.95;4.30;;;;;;;;;;4915768;29;20512;-72
2022/01/23 13:13:59;;;;;;;8.10;4.40;;;;;;;;;;4916496;29;20032;-73
2022/01/23 13:16:38;;;;;;;10.57;4.70;;;;;;;;;;4916218;29;20020;-73
2022/01/23 13:29:32;;;;;;;7.88;4.00;;;;;;;;;;4896012;29;20020;-73
2022/01/23 13:30:47;;;;;;;7.40;4.40;;;;;;;;;;4888451;29;20045;-72
2022/01/23 13:33:19;;;;;;;6.43;3.90;;;;;;;;;;4914737;29;20375;-72
2022/01/23 13:35:50;;;;;;;8.45;3.88;;;;;;;;;;4904063;29;20389;-71
2022/01/23 13:38:18;;;;;;;8.73;4.30;;;;;;;;;;4921240;29;20020;-72
2022/01/23 13:40:45;;;;;;;8.50;4.60;;;;;;;;;;4920363;29;20025;-72
2022/01/23 13:53:47;;;;;;;8.82;3.72;;;;;;;;;;4922386;29;20020;-73
2022/01/23 13:59:19;;;;;;;8.02;3.72;;;;;;;;;;4925454;29;20031;-72
2022/01/23 14:04:17;;;;;;;9.30;4.72;;;;;;;;;;4923121;29;20106;-73
2022/01/23 14:06:46;;;;;;;8.10;4.53;;;;;;;;;;4923134;29;20025;-72
2022/01/23 14:09:12;;;;;;;7.20;4.28;;;;;;;;;;4923822;29;20080;-71
2022/01/23 14:11:40;;;;;;;7.95;4.05;;;;;;;;;;4907080;29;20028;-73
2022/01/23 14:14:13;;;;;;;7.03;4.30;;;;;;;;;;4924989;29;20107;-73
2022/01/23 14:16:39;;;;;;;6.95;4.65;;;;;;;;;;4924829;29;20052;-72
2022/01/23 14:19:14;;;;;;;7.50;4.60;;;;;;;;;;4906630;29;20028;-73
2022/01/23 14:21:45;;;;;;;8.27;4.57;;;;;;;;;;4906178;29;20097;-73
2022/01/23 14:24:11;;;;;;;5.93;3.65;;;;;;;;;;4906178;29;20020;-72
2022/01/23 14:26:36;;;;;;;9.13;4.57;;;;;;;;;;4923358;29;20430;-72
2022/01/23 14:29:05;;;;;;;10.23;3.90;;;;;;;;;;4923411;29;20028;-71
2022/01/23 14:31:38;;;;;;;9.30;4.93;;;;;;;;;;4922597;29;20128;-73
2022/01/23 14:34:16;;;;;;;7.68;4.40;;;;;;;;;;4923736;29;20215;-72
2022/01/23 14:36:44;;;;;;;8.50;4.72;;;;;;;;;;4907211;29;20020;-73
2022/01/23 14:39:11;;;;;;;9.65;5.07;;;;;;;;;;4907297;29;20032;-72
2022/01/23 14:41:38;;;;;;;9.77;4.47;;;;;;;;;;4906051;29;20040;-72
2022/01/23 14:44:23;;;;;;;9.00;4.72;;;;;;;;;;4923511;29;20493;-72
2022/01/23 14:46:49;;;;;;;8.65;4.93;;;;;;;;;;4923547;29;20526;-72
2022/01/23 14:49:22;;;;;;;8.98;4.60;;;;;;;;;;4924080;29;20032;-72
2022/01/23 14:51:48;;;;;;;9.13;5.15;;;;;;;;;;4907155;29;20039;-74
2022/01/23 14:54:13;;;;;;;7.30;5.13;;;;;;;;;;4908234;29;20024;-72
2022/01/23 14:56:39;;;;;;;14.73;7.80;;;;;;;;;;4907167;29;20087;-72
2022/01/23 14:59:09;;;;;;;14.50;5.50;;;;;;;;;;4923440;29;20017;-73
2022/01/23 15:01:34;;;;;;;9.00;5.20;;;;;;;;;;4906448;29;20474;-74
2022/01/23 15:04:05;;;;;;;8.50;4.82;;;;;;;;;;4921657;29;20056;-74
2022/01/23 15:06:34;;;;;;;9.23;5.10;;;;;;;;;;4903970;29;20048;-74
2022/01/23 15:09:06;;;;;;;11.88;5.38;;;;;;;;;;4902835;29;20512;-73
2022/01/23 15:11:31;;;;;;;9.50;5.10;;;;;;;;;;4903200;29;20387;-72
2022/01/23 15:13:57;;;;;;;8.60;5.93;;;;;;;;;;4921418;29;20080;-72
2022/01/23 15:16:22;;;;;;;8.70;5.78;;;;;;;;;;4905393;29;20133;-73
2022/01/23 15:18:47;;;;;;;10.32;5.85;;;;;;;;;;4905642;29;20027;-73
2022/01/23 15:21:13;;;;;;;7.95;4.82;;;;;;;;;;4919214;29;20032;-72
2022/01/23 15:23:39;;;;;;;7.68;4.80;;;;;;;;;;4901613;29;20028;-72
2022/01/23 15:26:05;;;;;;;9.75;5.47;;;;;;;;;;4901806;29;20035;-73
2022/01/23 15:28:30;;;;;;;10.00;6.35;;;;;;;;;;4901962;29;20020;-73
2022/01/23 15:30:55;;;;;;;13.93;5.82;;;;;;;;;;4918789;29;20028;-73
2022/01/23 15:33:21;;;;;;;11.85;5.57;;;;;;;;;;4901558;29;20035;-73
2022/01/23 15:35:49;;;;;;;11.77;6.10;;;;;;;;;;4918839;29;20028;-73
2022/01/23 15:38:15;;;;;;;10.45;6.45;;;;;;;;;;4918492;29;20024;-73
2022/01/23 15:40:40;;;;;;;10.55;5.72;;;;;;;;;;4918886;29;20474;-72
2022/01/23 15:43:06;;;;;;;11.93;5.70;;;;;;;;;;4918928;29;20040;-73
2022/01/23 15:45:32;;;;;;;10.52;5.82;;;;;;;;;;4919127;29;20025;-71
2022/01/23 15:47:57;;;;;;;10.32;5.82;;;;;;;;;;4918684;29;20390;-73
2022/01/23 15:50:22;;;;;;;10.02;5.53;;;;;;;;;;4921335;29;20016;-72
2022/01/23 15:52:48;;;;;;;14.27;7.30;;;;;;;;;;4924003;29;20016;-72
2022/01/23 15:55:14;;;;;;;9.93;5.97;;;;;;;;;;4923171;29;20032;-72
2022/01/23 15:57:43;;;;;;;10.68;6.68;;;;;;;;;;4922170;29;20016;-72
2022/01/23 16:00:10;;;;;;;9.60;5.85;;;;;;;;;;4922980;29;20020;-73
2022/01/23 16:02:39;;;;;;;13.00;6.70;;;;;;;;;;4923504;29;20035;-73
2022/01/23 16:05:05;;;;;;;11.35;6.72;;;;;;;;;;4924832;29;20020;-72
2022/01/23 16:07:30;;;;;;;12.43;6.45;;;;;;;;;;4907761;29;20032;-73
2022/01/23 16:09:56;;;;;;;11.20;6.43;;;;;;;;;;4908284;29;20024;-72
2022/01/23 16:12:21;;;;;;;10.23;6.65;;;;;;;;;;4924636;29;20271;-72
2022/01/23 16:14:46;;;;;;;11.98;6.85;;;;;;;;;;4924404;29;20096;-73
2022/01/23 16:17:20;;;;;;;10.98;6.53;;;;;;;;;;4923798;29;20513;-72
2022/01/23 16:19:46;;;;;;;14.73;8.13;;;;;;;;;;4925008;29;20027;-72
2022/01/23 16:22:11;;;;;;;10.48;6.43;;;;;;;;;;4924457;29;20019;-72
2022/01/23 16:24:36;;;;;;;12.18;6.22;;;;;;;;;;4926218;29;20032;-73
2022/01/23 16:27:02;;;;;;;13.85;6.60;;;;;;;;;;4925277;29;20044;-73
2022/01/23 16:29:33;;;;;;;12.63;6.50;;;;;;;;;;4925041;29;20112;-72
2022/01/23 16:31:59;;;;;;;10.02;6.45;;;;;;;;;;4907919;29;20024;-72
2022/01/23 16:34:28;;;;;;;11.40;6.25;;;;;;;;;;4907297;29;20076;-72
2022/01/23 16:36:53;;;;;;;12.57;7.03;;;;;;;;;;4922285;29;20023;-72
2022/01/23 16:39:18;;;;;;;10.25;6.45;;;;;;;;;;4905148;29;20024;-71
2022/01/23 16:41:44;;;;;;;12.02;7.25;;;;;;;;;;4905842;29;20016;-72
2022/01/23 16:44:10;;;;;;;11.95;7.35;;;;;;;;;;4903531;29;20436;-71
2022/01/23 16:46:41;;;;;;;11.43;7.05;;;;;;;;;;4902655;29;20024;-71
2022/01/23 16:49:15;;;;;;;13.10;8.02;;;;;;;;;;4902895;29;20047;-71
2022/01/23 16:51:41;;;;;;;15.98;8.48;;;;;;;;;;4904470;29;20079;-72
2022/01/23 16:54:08;;;;;;;13.52;7.57;;;;;;;;;;4905509;29;20493;-72
2022/01/23 16:56:33;;;;;;;12.77;7.55;;;;;;;;;;4904689;29;20024;-72
2022/01/23 16:58:59;;;;;;;13.10;7.20;;;;;;;;;;4918534;29;20017;-72
2022/01/23 17:01:24;;;;;;;13.35;7.57;;;;;;;;;;4920074;29;20038;-73
2022/01/23 17:03:49;;;;;;;12.27;7.07;;;;;;;;;;4922839;29;20020;-71
2022/01/23 17:06:16;;;;;;;11.68;7.30;;;;;;;;;;4922281;29;20107;-72
2022/01/23 17:08:41;;;;;;;12.73;7.43;;;;;;;;;;4923299;29;20052;-72
2022/01/23 17:11:07;;;;;;;15.35;7.28;;;;;;;;;;4923529;29;20032;-73
2022/01/23 17:13:32;;;;;;;14.98;8.18;;;;;;;;;;4924221;29;20020;-73
2022/01/23 17:15:57;;;;;;;15.23;7.10;;;;;;;;;;4907462;29;20391;-72
2022/01/23 17:18:23;;;;;;;12.75;6.90;;;;;;;;;;4923596;29;20020;-72
2022/01/23 17:20:48;;;;;;;13.52;7.55;;;;;;;;;;4906569;29;20024;-72
2022/01/23 17:23:13;;;;;;;15.23;7.80;;;;;;;;;;4906404;29;20021;-72
2022/01/23 17:25:39;;;;;;;13.80;7.68;;;;;;;;;;4922603;29;20013;-72
2022/01/23 17:28:04;;;;;;;12.85;7.40;;;;;;;;;;4903602;29;20032;-72
2022/01/23 17:30:29;;;;;;;12.57;7.55;;;;;;;;;;4920820;29;20013;-73
2022/01/23 17:32:55;;;;;;;13.00;7.55;;;;;;;;;;4907081;29;20020;-72
2022/01/23 17:35:21;;;;;;;15.15;7.72;;;;;;;;;;4916051;29;20260;-73
2022/01/23 17:37:48;;;;;;;17.98;8.20;;;;;;;;;;4934040;29;20109;-71
2022/01/23 17:40:14;;;;;;;13.98;7.55;;;;;;;;;;4917271;29;20074;-71
2022/01/23 17:42:39;;;;;;;18.45;8.40;;;;;;;;;;4933630;29;20039;-71
2022/01/23 17:45:08;;;;;;;14.93;8.48;;;;;;;;;;4916654;29;20249;-72
2022/01/23 17:47:56;;;;;;;15.52;8.20;;;;;;;;;;4926502;29;20113;-71
2022/01/23 17:50:21;;;;;;;14.98;7.20;;;;;;;;;;4924636;29;20038;-71
2022/01/23 17:52:50;;;;;;;17.38;8.68;;;;;;;;;;4901268;29;20047;-71
2022/01/23 17:55:16;;;;;;;15.93;7.95;;;;;;;;;;4932595;29;20027;-74
2022/01/23 17:57:41;;;;;;;15.90;7.43;;;;;;;;;;4928174;29;20079;-71
2022/01/23 18:00:08;;;;;;;13.80;7.45;;;;;;;;;;4911694;29;20374;-73
2022/01/23 18:02:34;;;;;;;15.38;7.88;;;;;;;;;;4909117;29;20021;-73